Terminal Aerodrome Forecast
Issued by NWS

Home | Current Version | Previous Version | Text Only | Print | Product List | Glossary On
Versions: 1 2 3 4 5 6 7 8 9 10 11 12 13 14 15 16 17
000
FTUS45 KABQ 301603 AAA
TAFROW
TAF AMD
KROW 301603Z 3016/3112 04010KT P6SM SCT030
      TEMPO 3016/3018 BKN025
     FM301900 07010KT P6SM FEW050 SCT150
     FM302300 16008KT P6SM VCSH SCT060 BKN120
     FM310400 15006KT P6SM SCT040 BKN060=

USA.gov is the U.S. government's official web portal to all federal, state and local government web resources and services.